Time;durP1;ratioP1;P1;durP2;ratioP2;P2;SDS_P1;SDS_P2;PMS_P1;PMS_P2;Temp;Humidity;BMP_temperature;BMP_pressure;BME280_temperature;BME280_humidity;BME280_pressure;Samples;Min_cycle;Max_cycle;Signal;HPM_P1;HPM_P2
2023/11/04 00:01:53;;;;;;;4.03;2.50;;;;;;;4.08;82.79;90570.72;6145282;23;20093;-76
2023/11/04 00:04:19;;;;;;;5.40;2.45;;;;;;;4.04;84.42;90569.78;6145384;23;20056;-76
2023/11/04 00:06:45;;;;;;;3.33;2.00;;;;;;;4.01;84.92;90581.47;6145893;23;20033;-75
2023/11/04 00:09:11;;;;;;;2.97;1.80;;;;;;;3.96;86.25;90581.56;6144464;23;20229;-76
2023/11/04 00:11:37;;;;;;;2.22;1.42;;;;;;;3.94;86.52;90587.06;6120205;23;20195;-75
2023/11/04 00:14:04;;;;;;;1.95;1.20;;;;;;;3.94;87.42;90594.81;6146129;23;20021;-76
2023/11/04 00:16:30;;;;;;;1.25;1.00;;;;;;;3.88;89.19;90590.03;6144679;23;20433;-76
2023/11/04 00:18:56;;;;;;;1.48;0.90;;;;;;;3.80;89.04;90594.06;6144817;23;20405;-75
2023/11/04 00:21:21;;;;;;;1.33;1.02;;;;;;;3.76;89.20;90600.91;6146009;23;20040;-75
2023/11/04 00:23:47;;;;;;;1.67;0.90;;;;;;;3.73;88.03;90593.69;6146492;23;20012;-76
2023/11/04 00:26:13;;;;;;;0.80;0.80;;;;;;;3.72;86.38;90597.34;6145043;23;20102;-75
2023/11/04 00:28:43;;;;;;;0.80;0.80;;;;;;;3.67;90.36;90600.03;6144927;23;20041;-75
2023/11/04 00:31:09;;;;;;;1.80;1.15;;;;;;;3.63;91.79;90593.91;6145216;23;20021;-75
2023/11/04 00:33:35;;;;;;;1.83;1.20;;;;;;;3.58;93.49;90599.19;6143521;23;20018;-76
2023/11/04 00:36:01;;;;;;;5.55;2.30;;;;;;;3.53;95.02;90603.41;6143446;23;20362;-76
2023/11/04 00:38:26;;;;;;;2.60;1.50;;;;;;;3.49;94.78;90605.03;6145199;23;20013;-75
2023/11/04 00:40:52;;;;;;;3.63;1.10;;;;;;;3.45;95.34;90613.66;6145483;23;20025;-74
2023/11/04 00:43:18;;;;;;;1.27;1.00;;;;;;;3.40;93.88;90616.34;6146234;23;20105;-76
2023/11/04 00:45:43;;;;;;;0.70;0.70;;;;;;;3.37;93.16;90615.09;6145507;23;20084;-74
2023/11/04 00:48:09;;;;;;;0.90;0.80;;;;;;;3.29;93.89;90615.78;6145112;23;20017;-75
2023/11/04 00:50:36;;;;;;;0.88;0.75;;;;;;;3.23;93.92;90619.50;6145075;23;20386;-75
2023/11/04 00:53:02;;;;;;;0.73;0.70;;;;;;;3.20;92.89;90622.63;6144839;23;20006;-75
2023/11/04 00:55:28;;;;;;;0.90;0.90;;;;;;;3.16;93.07;90621.69;6144946;23;20067;-76
2023/11/04 00:57:55;;;;;;;1.40;0.80;;;;;;;3.10;98.03;90629.53;6144869;23;20444;-75
2023/11/04 01:00:25;;;;;;;1.02;0.80;;;;;;;3.03;98.69;90623.97;6143584;23;20040;-75
2023/11/04 01:02:55;;;;;;;0.85;0.80;;;;;;;3.00;99.72;90624.56;6145324;23;20021;-74
2023/11/04 01:05:25;;;;;;;1.48;0.88;;;;;;;2.96;99.97;90633.91;6143531;23;20010;-75
2023/11/04 01:07:52;;;;;;;1.42;0.80;;;;;;;2.92;99.90;90627.78;6143927;23;20426;-75
2023/11/04 01:10:18;;;;;;;1.13;0.73;;;;;;;2.87;100.00;90636.38;6144933;23;20006;-75
2023/11/04 01:12:43;;;;;;;1.92;0.90;;;;;;;2.84;100.00;90636.19;6144385;23;20013;-76
2023/11/04 01:15:09;;;;;;;1.25;0.90;;;;;;;2.80;100.00;90635.22;6144882;23;20021;-76
2023/11/04 01:17:35;;;;;;;0.75;0.75;;;;;;;2.77;100.00;90630.63;6145059;23;20012;-76
2023/11/04 01:20:01;;;;;;;1.83;0.90;;;;;;;2.72;100.00;90639.22;6145236;23;20410;-76
2023/11/04 01:22:27;;;;;;;0.80;0.80;;;;;;;2.67;100.00;90634.13;6143527;23;20121;-74
2023/11/04 01:24:53;;;;;;;0.98;0.88;;;;;;;2.65;100.00;90641.41;6145709;23;20034;-75
2023/11/04 01:27:18;;;;;;;0.98;0.90;;;;;;;2.62;100.00;90637.56;6144908;23;20018;-75
2023/11/04 01:29:44;;;;;;;0.82;0.82;;;;;;;2.59;100.00;90645.09;6142721;23;20347;-75
2023/11/04 01:32:09;;;;;;;1.40;0.98;;;;;;;2.56;100.00;90641.28;6142711;23;20029;-76
2023/11/04 01:34:35;;;;;;;1.10;1.00;;;;;;;2.54;100.00;90637.44;6144633;23;20044;-76
2023/11/04 01:37:01;;;;;;;1.83;0.98;;;;;;;2.53;100.00;90641.84;6144600;23;20014;-76
2023/11/04 01:39:27;;;;;;;1.10;0.93;;;;;;;2.52;100.00;90648.03;6145386;23;20067;-76
2023/11/04 01:41:52;;;;;;;1.45;1.00;;;;;;;2.49;100.00;90649.38;6144278;23;20033;-75
2023/11/04 01:44:18;;;;;;;2.72;1.08;;;;;;;2.46;100.00;90649.94;6120081;23;20032;-74
2023/11/04 01:46:44;;;;;;;0.73;0.73;;;;;;;2.45;100.00;90648.41;6146711;23;20023;-76
2023/11/04 01:49:10;;;;;;;1.20;0.90;;;;;;;2.45;100.00;90647.63;6120121;23;20207;-75
2023/11/04 01:51:36;;;;;;;1.00;0.88;;;;;;;2.44;100.00;90651.28;6146127;23;20017;-76
2023/11/04 01:54:03;;;;;;;0.80;0.70;;;;;;;2.45;100.00;90657.97;6145815;23;20390;-75
2023/11/04 01:56:39;;;;;;;0.90;0.90;;;;;;;2.39;100.00;90664.28;6144429;23;20282;-75
2023/11/04 01:59:06;;;;;;;1.60;0.93;;;;;;;2.36;100.00;90669.97;6144307;23;20104;-76
2023/11/04 02:01:34;;;;;;;1.38;1.00;;;;;;;2.33;100.00;90667.97;6145787;23;20088;-75
2023/11/04 02:04:03;;;;;;;1.63;1.00;;;;;;;2.29;100.00;90665.94;6146181;23;20101;-75
2023/11/04 02:06:29;;;;;;;0.88;0.85;;;;;;;2.28;100.00;90664.41;6144353;23;20010;-75
2023/11/04 02:08:55;;;;;;;0.80;0.80;;;;;;;2.26;100.00;90663.91;6146092;23;20446;-76
2023/11/04 02:11:22;;;;;;;1.50;1.00;;;;;;;2.25;100.00;90662.38;6144569;23;20022;-75
2023/11/04 02:13:48;;;;;;;1.45;0.90;;;;;;;2.25;100.00;90657.22;6143802;23;20018;-75
2023/11/04 02:16:13;;;;;;;0.77;0.73;;;;;;;2.25;100.00;90664.19;6144310;23;20458;-75
2023/11/04 02:18:39;;;;;;;1.10;0.90;;;;;;;2.22;100.00;90673.25;6144074;23;20020;-75
2023/11/04 02:21:05;;;;;;;0.95;0.90;;;;;;;2.18;100.00;90667.13;6146011;23;20017;-75
2023/11/04 02:23:31;;;;;;;0.80;0.80;;;;;;;2.15;100.00;90666.91;6145778;23;20002;-76
2023/11/04 02:25:56;;;;;;;0.80;0.80;;;;;;;2.13;100.00;90662.03;6144076;23;20018;-75
2023/11/04 02:28:22;;;;;;;1.98;1.10;;;;;;;2.10;100.00;90665.16;6146183;23;20017;-75
2023/11/04 02:30:48;;;;;;;0.80;0.80;;;;;;;2.10;100.00;90657.44;6144575;23;20018;-75
2023/11/04 02:33:15;;;;;;;1.35;0.90;;;;;;;2.10;100.00;90660.00;6146549;23;20672;-75
2023/11/04 02:35:40;;;;;;;1.25;1.15;;;;;;;2.10;100.00;90662.59;6146615;23;19998;-75
2023/11/04 02:38:07;;;;;;;2.35;0.80;;;;;;;2.07;100.00;90660.56;6144433;23;20071;-75
2023/11/04 02:40:33;;;;;;;2.53;0.80;;;;;;;2.04;100.00;90656.72;6145561;23;20450;-76
2023/11/04 02:42:59;;;;;;;2.70;1.00;;;;;;;2.04;100.00;90655.97;6145652;23;20023;-75
2023/11/04 02:45:24;;;;;;;2.67;1.00;;;;;;;2.02;100.00;90655.47;6144152;23;20010;-75
2023/11/04 02:47:50;;;;;;;0.80;0.80;;;;;;;2.01;100.00;90653.94;6144787;23;20045;-76
2023/11/04 02:50:16;;;;;;;0.70;0.70;;;;;;;1.99;100.00;90661.94;6146105;23;20002;-74
2023/11/04 02:52:42;;;;;;;0.80;0.80;;;;;;;2.00;100.00;90660.13;6146349;23;20517;-76
2023/11/04 02:55:08;;;;;;;1.48;0.90;;;;;;;1.97;100.00;90655.53;6145921;23;20331;-76
2023/11/04 02:57:34;;;;;;;1.15;0.90;;;;;;;1.95;100.00;90657.63;6144255;23;20070;-75
2023/11/04 02:59:59;;;;;;;0.70;0.70;;;;;;;1.96;100.00;90656.56;6145682;23;20029;-75
2023/11/04 03:02:25;;;;;;;0.90;0.90;;;;;;;1.94;100.00;90653.53;6144051;23;20067;-75
2023/11/04 03:04:53;;;;;;;1.33;1.00;;;;;;;1.94;100.00;90667.19;6144018;23;20055;-74
2023/11/04 03:07:19;;;;;;;2.92;1.52;;;;;;;2.00;100.00;90663.47;6144027;23;20018;-75
2023/11/04 03:09:45;;;;;;;5.07;2.33;;;;;;;2.02;100.00;90661.38;6144613;23;20016;-75
2023/11/04 03:12:11;;;;;;;3.50;1.88;;;;;;;2.02;100.00;90663.97;6144259;23;20052;-75
2023/11/04 03:14:37;;;;;;;3.78;1.75;;;;;;;2.02;100.00;90663.22;6144716;23;20021;-75
2023/11/04 03:17:04;;;;;;;2.60;1.45;;;;;;;2.03;100.00;90664.75;6146098;23;20067;-75
2023/11/04 03:19:30;;;;;;;2.05;1.35;;;;;;;2.01;100.00;90656.53;6144222;23;20068;-75
2023/11/04 03:21:56;;;;;;;8.73;1.42;;;;;;;1.99;100.00;90659.38;6146009;23;20021;-75
2023/11/04 03:24:22;;;;;;;2.63;1.60;;;;;;;1.97;100.00;90660.69;6144278;23;20070;-75
2023/11/04 03:26:48;;;;;;;1.95;1.30;;;;;;;1.94;100.00;90662.03;6145919;23;20025;-75
2023/11/04 03:29:14;;;;;;;2.42;1.38;;;;;;;1.92;100.00;90665.94;6144522;23;20001;-75
2023/11/04 03:31:40;;;;;;;1.75;1.10;;;;;;;1.91;100.00;90664.38;6146303;23;20290;-76
2023/11/04 03:34:06;;;;;;;2.10;1.20;;;;;;;1.87;100.00;90664.94;6145699;23;20366;-75
2023/11/04 03:36:32;;;;;;;2.75;1.60;;;;;;;1.86;100.00;90665.97;6146517;23;20048;-76
2023/11/04 03:38:57;;;;;;;1.20;0.98;;;;;;;1.85;100.00;90664.44;6145988;23;20084;-75
2023/11/04 03:41:23;;;;;;;3.63;2.10;;;;;;;1.82;100.00;90662.44;6145560;23;20017;-75
2023/11/04 03:43:51;;;;;;;3.42;1.77;;;;;;;1.81;100.00;90662.69;6144069;23;20024;-75
2023/11/04 03:46:18;;;;;;;3.10;1.67;;;;;;;1.77;100.00;90664.28;6145482;23;20048;-75
2023/11/04 03:48:45;;;;;;;3.28;1.80;;;;;;;1.76;100.00;90665.34;6145521;23;20028;-76
2023/11/04 03:51:11;;;;;;;5.88;2.80;;;;;;;1.75;100.00;90661.97;6144106;23;20021;-75
2023/11/04 03:53:37;;;;;;;4.03;2.10;;;;;;;1.74;100.00;90663.03;6145945;23;20347;-74
2023/11/04 03:56:03;;;;;;;4.22;2.10;;;;;;;1.71;100.00;90663.56;6149515;23;20010;-76
2023/11/04 03:58:29;;;;;;;3.17;1.88;;;;;;;1.70;100.00;90666.44;6145382;23;20082;-76
2023/11/04 04:00:55;;;;;;;2.25;1.30;;;;;;;1.67;100.00;90676.28;6145374;23;20017;-76
2023/11/04 04:03:20;;;;;;;1.58;1.10;;;;;;;1.66;100.00;90676.53;6144577;23;20009;-76
2023/11/04 04:05:46;;;;;;;5.00;2.10;;;;;;;1.65;100.00;90686.09;6145940;23;20405;-76
2023/11/04 04:08:12;;;;;;;4.03;2.15;;;;;;;1.65;100.00;90675.00;6145445;23;20062;-76
2023/11/04 04:10:38;;;;;;;3.65;1.88;;;;;;;1.66;100.00;90677.31;6145250;23;20067;-76
2023/11/04 04:13:03;;;;;;;3.40;1.63;;;;;;;1.67;100.00;90672.94;6143603;23;20005;-76
2023/11/04 04:15:29;;;;;;;2.05;1.20;;;;;;;1.71;100.00;90673.88;6146249;23;20076;-76
2023/11/04 04:17:54;;;;;;;1.08;0.90;;;;;;;1.73;100.00;90674.38;6145721;23;20512;-76
2023/11/04 04:20:21;;;;;;;2.22;1.40;;;;;;;1.72;100.00;90680.59;6146312;23;20020;-75
2023/11/04 04:22:47;;;;;;;3.30;1.60;;;;;;;1.75;100.00;90680.03;6145482;23;20101;-75
2023/11/04 04:25:13;;;;;;;2.13;1.25;;;;;;;1.74;100.00;90678.53;6145614;23;20534;-76
2023/11/04 04:27:42;;;;;;;3.55;1.48;;;;;;;1.72;100.00;90680.59;6145576;23;20011;-75
2023/11/04 04:30:08;;;;;;;3.35;1.52;;;;;;;1.72;100.00;90683.19;6145374;23;20455;-75
2023/11/04 04:32:34;;;;;;;4.28;1.90;;;;;;;1.69;100.00;90685.53;6143649;23;20009;-76
2023/11/04 04:35:00;;;;;;;5.80;1.80;;;;;;;1.68;100.00;90695.09;6145277;23;20041;-76
2023/11/04 04:37:28;;;;;;;7.18;1.80;;;;;;;1.66;100.00;90694.59;6143828;23;20005;-76
2023/11/04 04:39:54;;;;;;;8.05;2.42;;;;;;;1.64;100.00;90694.09;6143871;23;20022;-74
2023/11/04 04:42:19;;;;;;;4.95;1.98;;;;;;;1.61;100.00;90698.00;6145817;23;20013;-76
2023/11/04 04:44:45;;;;;;;3.47;1.70;;;;;;;1.61;100.00;90698.00;6145552;23;20029;-75
2023/11/04 04:47:11;;;;;;;4.75;2.15;;;;;;;1.63;100.00;90702.88;6143522;23;20032;-76
2023/11/04 04:49:37;;;;;;;3.47;1.63;;;;;;;1.63;100.00;90705.47;6145053;23;20013;-76
2023/11/04 04:52:02;;;;;;;5.22;1.60;;;;;;;1.63;100.00;90708.06;6145138;23;20005;-75
2023/11/04 04:54:28;;;;;;;4.00;1.42;;;;;;;1.64;100.00;90707.00;6144970;23;20013;-75
2023/11/04 04:56:54;;;;;;;0.80;0.80;;;;;;;1.59;100.00;90720.72;6143806;23;20178;-76
2023/11/04 04:59:20;;;;;;;0.98;0.90;;;;;;;1.55;100.00;90716.38;6144019;23;20013;-75
2023/11/04 05:01:45;;;;;;;2.63;1.38;;;;;;;1.53;100.00;90714.09;6145450;23;20016;-75
2023/11/04 05:04:13;;;;;;;1.65;1.23;;;;;;;1.50;100.00;90724.94;6145501;23;20017;-76
2023/11/04 05:06:38;;;;;;;3.55;1.52;;;;;;;1.44;100.00;90715.72;6143648;23;20006;-75
2023/11/04 05:09:04;;;;;;;1.65;1.30;;;;;;;1.43;100.00;90724.50;6145109;23;20113;-74
2023/11/04 05:11:30;;;;;;;1.63;1.10;;;;;;;1.45;100.00;90718.03;6144938;23;20025;-76
2023/11/04 05:13:56;;;;;;;2.35;0.95;;;;;;;1.41;100.00;90718.84;6145249;23;20017;-75
2023/11/04 05:16:22;;;;;;;1.48;0.98;;;;;;;1.38;100.00;90727.13;6144346;23;20032;-75
2023/11/04 05:18:48;;;;;;;1.60;1.20;;;;;;;1.36;100.00;90726.63;6144582;23;20020;-76
2023/11/04 05:21:16;;;;;;;1.08;0.98;;;;;;;1.35;100.00;90727.66;6147041;23;20012;-76
2023/11/04 05:23:45;;;;;;;2.92;1.00;;;;;;;1.35;100.00;90733.59;6147119;23;20013;-75
2023/11/04 05:26:10;;;;;;;1.40;1.08;;;;;;;1.33;100.00;90727.94;6146687;23;20048;-76
2023/11/04 05:28:36;;;;;;;1.30;1.20;;;;;;;1.31;100.00;90726.69;6147045;23;20389;-76
2023/11/04 05:31:02;;;;;;;1.70;1.20;;;;;;;1.29;100.00;90724.38;6146181;23;19998;-76
2023/11/04 05:33:28;;;;;;;0.93;0.90;;;;;;;1.29;100.00;90719.22;6146498;23;20063;-76
2023/11/04 05:35:53;;;;;;;1.45;1.10;;;;;;;1.28;100.00;90717.66;6146041;23;20047;-76
2023/11/04 05:38:19;;;;;;;2.42;1.10;;;;;;;1.28;100.00;90717.66;6145877;23;20093;-76
2023/11/04 05:40:45;;;;;;;3.80;1.02;;;;;;;1.27;100.00;90711.00;6201194;22;20248;-76
2023/11/04 05:43:10;;;;;;;1.60;1.05;;;;;;;1.26;100.00;90714.59;6245654;22;20536;-76
2023/11/04 05:45:36;;;;;;;1.17;1.08;;;;;;;1.22;100.00;90703.31;6246039;22;20322;-76
2023/11/04 05:48:02;;;;;;;3.70;1.10;;;;;;;1.24;100.00;90711.53;6272871;22;20488;-76
2023/11/04 05:50:27;;;;;;;1.25;1.08;;;;;;;1.22;100.00;90714.38;6271869;22;20011;-76
2023/11/04 05:52:53;;;;;;;1.77;0.88;;;;;;;1.23;100.00;90707.41;6271720;22;20090;-76
2023/11/04 05:55:19;;;;;;;1.10;1.00;;;;;;;1.20;100.00;90705.38;6271485;22;20617;-76
2023/11/04 05:57:44;;;;;;;5.90;3.55;;;;;;;1.19;100.00;90703.84;6271322;22;20015;-75
2023/11/04 06:00:13;;;;;;;7.50;3.65;;;;;;;1.20;100.00;90715.69;6271357;22;20000;-76
2023/11/04 06:02:40;;;;;;;8.05;3.47;;;;;;;1.21;100.00;90712.81;6245211;22;20039;-75
2023/11/04 06:05:06;;;;;;;6.10;3.05;;;;;;;1.22;100.00;90704.06;6271240;22;20004;-75
2023/11/04 06:07:33;;;;;;;4.05;1.80;;;;;;;1.29;100.00;90701.19;6272223;22;20251;-75
2023/11/04 06:09:58;;;;;;;4.10;1.83;;;;;;;1.26;100.00;90701.69;6271797;22;20429;-75
2023/11/04 06:12:24;;;;;;;6.00;2.70;;;;;;;1.26;100.00;90714.59;6271345;22;20020;-75
2023/11/04 06:14:50;;;;;;;4.35;2.00;;;;;;;1.26;100.00;90706.84;6271257;22;19995;-74
2023/11/04 06:17:15;;;;;;;2.65;1.50;;;;;;;1.27;100.00;90716.16;6271276;22;20012;-76
2023/11/04 06:19:41;;;;;;;1.10;1.00;;;;;;;1.30;100.00;90720.75;6244107;22;20422;-76
2023/11/04 06:22:07;;;;;;;1.95;1.15;;;;;;;1.33;100.00;90719.44;6244164;22;20012;-76
2023/11/04 06:24:32;;;;;;;3.15;1.60;;;;;;;1.49;100.00;90720.84;6270863;22;20004;-76
2023/11/04 06:26:58;;;;;;;2.70;1.50;;;;;;;2.19;100.00;90724.69;6271269;22;20008;-75
2023/11/04 06:29:23;;;;;;;2.70;1.60;;;;;;;2.51;100.00;90731.75;6271883;22;20057;-76
2023/11/04 06:31:50;;;;;;;2.97;1.60;;;;;;;2.44;100.00;90737.25;6244491;22;20016;-74
2023/11/04 06:34:15;;;;;;;2.40;1.48;;;;;;;2.36;100.00;90727.56;6244591;22;20011;-76
2023/11/04 06:36:41;;;;;;;2.83;1.60;;;;;;;2.36;100.00;90731.97;6244266;22;20011;-76
2023/11/04 06:39:07;;;;;;;2.95;1.52;;;;;;;2.36;100.00;90730.13;6243993;22;20011;-76
2023/11/04 06:41:33;;;;;;;2.90;1.70;;;;;;;2.46;100.00;90731.84;6262069;22;20054;-76
2023/11/04 06:43:58;;;;;;;2.95;1.70;;;;;;;2.56;100.00;90731.69;6270895;22;20039;-75
2023/11/04 06:46:24;;;;;;;5.85;2.30;;;;;;;3.19;100.00;90725.31;6271015;22;20437;-75
2023/11/04 06:48:51;;;;;;;2.38;1.50;;;;;;;4.22;100.00;90733.84;6271582;22;20060;-76
2023/11/04 06:51:18;;;;;;;2.58;1.60;;;;;;;4.77;100.00;90731.91;6271236;22;20156;-78
2023/11/04 06:53:44;;;;;;;1.85;1.02;;;;;;;4.98;100.00;90729.63;6287280;22;19999;-79
2023/11/04 06:56:10;;;;;;;1.67;1.08;;;;;;;5.64;100.00;90729.84;6285960;22;20326;-79
2023/11/04 06:58:35;;;;;;;1.83;1.15;;;;;;;5.92;100.00;90728.91;6281278;22;20003;-79
2023/11/04 07:01:01;;;;;;;1.50;1.10;;;;;;;6.19;97.46;90730.56;6283689;22;20018;-80
2023/11/04 07:03:29;;;;;;;1.65;1.23;;;;;;;5.88;99.23;90733.94;6284729;22;20326;-80
2023/11/04 07:05:55;;;;;;;3.55;1.52;;;;;;;5.64;98.45;90735.06;6286046;22;20024;-80
2023/11/04 07:08:21;;;;;;;3.20;1.52;;;;;;;5.40;99.89;90742.41;6287708;22;20015;-80
2023/11/04 07:10:48;;;;;;;2.80;1.40;;;;;;;5.15;100.00;90739.34;6285515;22;20011;-80
2023/11/04 07:13:14;;;;;;;2.05;1.30;;;;;;;4.89;100.00;90744.34;6284067;22;20011;-79
2023/11/04 07:15:43;;;;;;;4.00;1.42;;;;;;;4.70;100.00;90744.50;6280012;22;20007;-79
2023/11/04 07:18:14;;;;;;;1.98;1.20;;;;;;;4.63;100.00;90741.53;6281363;22;19999;-78
2023/11/04 07:20:40;;;;;;;1.95;1.20;;;;;;;5.16;100.00;90738.28;6273696;22;20015;-77
2023/11/04 07:23:13;;;;;;;2.78;1.35;;;;;;;6.29;100.00;90732.88;6273433;22;20030;-79
2023/11/04 07:25:39;;;;;;;1.98;1.20;;;;;;;7.69;100.00;90731.06;6278595;22;20016;-78
2023/11/04 07:28:05;;;;;;;3.38;1.50;;;;;;;8.40;92.34;90735.72;6278705;22;20011;-78
2023/11/04 07:30:31;;;;;;;2.95;1.60;;;;;;;9.43;81.99;90739.75;6278539;22;20019;-78
2023/11/04 07:32:56;;;;;;;3.55;1.63;;;;;;;9.37;83.55;90739.97;6276848;22;20000;-78
2023/11/04 07:35:22;;;;;;;2.75;1.27;;;;;;;9.36;66.52;90746.25;6277183;22;20016;-80
2023/11/04 07:37:48;;;;;;;1.23;1.10;;;;;;;8.87;63.47;90747.88;6274917;22;20003;-78
2023/11/04 07:40:16;;;;;;;3.15;1.38;;;;;;;9.62;64.18;90749.75;6277793;22;20023;-77
2023/11/04 07:42:45;;;;;;;2.55;1.27;;;;;;;10.60;59.33;90766.38;6284260;22;20018;-73
2023/11/04 07:45:11;;;;;;;3.72;1.30;;;;;;;10.07;55.01;90759.44;6279920;22;20016;-79
2023/11/04 07:47:39;;;;;;;1.40;1.10;;;;;;;9.49;60.45;90764.59;6286756;22;20072;-79
2023/11/04 07:50:15;;;;;;;1.92;1.20;;;;;;;9.48;60.31;90778.72;6285294;22;20015;-81
2023/11/04 07:52:41;;;;;;;2.08;1.30;;;;;;;10.27;59.68;90779.53;6279969;22;20012;-82
2023/11/04 07:55:08;;;;;;;8.05;3.10;;;;;;;10.08;62.20;90771.41;6282974;22;20062;-81
2023/11/04 07:57:37;;;;;;;3.25;1.48;;;;;;;9.96;59.92;90775.53;6285762;22;20079;-81
2023/11/04 08:00:08;;;;;;;8.00;2.28;;;;;;;9.64;62.58;90769.25;6285121;22;20007;-81
2023/11/04 08:02:37;;;;;;;3.17;1.40;;;;;;;9.66;66.36;90774.91;6285325;22;20026;-81
2023/11/04 08:05:04;;;;;;;3.42;1.20;;;;;;;9.47;62.99;90787.66;6282696;22;20012;-81
2023/11/04 08:07:31;;;;;;;2.67;1.30;;;;;;;8.88;65.46;90786.69;6282965;22;20019;-81
2023/11/04 08:10:00;;;;;;;2.20;1.30;;;;;;;8.19;67.19;90768.75;6283398;22;20179;-80
2023/11/04 08:12:29;;;;;;;1.92;1.17;;;;;;;7.59;72.31;90766.00;6281105;22;20015;-80
2023/11/04 08:14:54;;;;;;;1.13;1.00;;;;;;;7.56;70.83;90758.78;6280509;22;20004;-81
2023/11/04 08:17:21;;;;;;;2.47;1.00;;;;;;;7.27;74.31;90762.03;6284013;22;20022;-80
2023/11/04 08:19:47;;;;;;;3.22;1.13;;;;;;;7.17;77.74;90764.97;6281255;22;20000;-81
2023/11/04 08:22:14;;;;;;;2.22;1.20;;;;;;;7.27;81.86;90778.44;6286730;22;20542;-81
2023/11/04 08:24:40;;;;;;;1.65;1.13;;;;;;;7.28;80.91;90781.81;6285089;22;20007;-82
2023/11/04 08:27:06;;;;;;;1.88;1.20;;;;;;;7.14;77.65;90791.59;6286456;22;20337;-81
2023/11/04 08:29:32;;;;;;;2.35;1.20;;;;;;;7.04;76.25;90795.25;6284331;22;20042;-81
2023/11/04 08:31:58;;;;;;;2.90;1.27;;;;;;;7.14;76.89;90807.97;6283102;22;20497;-81
2023/11/04 08:34:24;;;;;;;2.25;1.20;;;;;;;7.18;80.29;90808.13;6282462;22;20055;-81
2023/11/04 08:36:50;;;;;;;5.20;2.05;;;;;;;7.08;74.13;90796.19;6285040;22;20492;-81
2023/11/04 08:39:16;;;;;;;5.07;2.20;;;;;;;6.92;78.11;90797.72;6283613;22;20006;-82
2023/11/04 08:41:42;;;;;;;3.05;1.50;;;;;;;7.04;81.07;90800.47;6281730;22;20037;-80
2023/11/04 08:44:08;;;;;;;3.05;1.52;;;;;;;7.12;81.94;90804.91;6231024;22;20020;-81
2023/11/04 08:46:36;;;;;;;2.50;1.42;;;;;;;7.41;82.59;90798.34;6255431;22;20038;-81
2023/11/04 08:49:01;;;;;;;2.33;1.50;;;;;;;7.69;84.46;90812.53;6252519;22;20450;-82
2023/11/04 08:51:27;;;;;;;2.67;1.20;;;;;;;7.77;80.16;90815.44;6251594;22;20469;-81
2023/11/04 08:53:53;;;;;;;5.30;1.90;;;;;;;7.75;78.97;90815.00;6278698;22;20441;-80
2023/11/04 08:56:19;;;;;;;1.77;1.30;;;;;;;7.67;80.68;90817.28;6279882;22;20018;-81
2023/11/04 08:58:45;;;;;;;3.53;1.90;;;;;;;7.57;79.16;90835.84;6225655;22;20007;-82
2023/11/04 09:01:14;;;;;;;2.53;1.30;;;;;;;7.47;81.97;90821.28;6277298;22;20031;-81
2023/11/04 09:03:40;;;;;;;2.00;1.17;;;;;;;7.30;77.64;90816.88;6281590;22;19996;-80
2023/11/04 09:06:06;;;;;;;1.65;0.98;;;;;;;7.04;88.14;90797.88;6278465;22;20083;-79
2023/11/04 09:08:32;;;;;;;2.25;1.35;;;;;;;6.73;88.26;90803.16;6251316;22;19999;-80
2023/11/04 09:10:58;;;;;;;1.83;1.30;;;;;;;6.46;93.69;90810.13;6278068;22;20019;-81
2023/11/04 09:13:24;;;;;;;2.75;1.35;;;;;;;6.18;93.75;90815.53;6281571;22;20309;-82
2023/11/04 09:15:50;;;;;;;3.65;1.40;;;;;;;5.96;100.00;90807.78;6282117;22;20008;-80
2023/11/04 09:18:16;;;;;;;2.88;1.52;;;;;;;5.86;100.00;90808.78;6283884;22;20038;-80
2023/11/04 09:20:42;;;;;;;4.45;1.20;;;;;;;5.82;93.76;90811.19;6283822;22;20043;-79
2023/11/04 09:23:12;;;;;;;1.88;1.20;;;;;;;5.81;93.62;90812.28;6256075;22;20003;-79
2023/11/04 09:25:37;;;;;;;2.30;1.40;;;;;;;5.80;94.67;90804.78;6252820;22;20015;-80
2023/11/04 09:28:03;;;;;;;2.22;1.35;;;;;;;5.84;95.08;90810.91;6276446;22;20004;-79
2023/11/04 09:30:30;;;;;;;5.95;1.30;;;;;;;5.86;97.80;90824.38;6278832;22;20032;-80
2023/11/04 09:32:55;;;;;;;3.22;1.20;;;;;;;5.93;97.31;90824.72;6257442;22;20435;-78
2023/11/04 09:35:22;;;;;;;6.32;1.83;;;;;;;5.99;96.71;90836.53;6277779;22;20008;-79
2023/11/04 09:37:49;;;;;;;4.93;1.73;;;;;;;6.08;98.74;90841.00;6280558;22;19999;-80
2023/11/04 09:40:16;;;;;;;4.47;1.70;;;;;;;6.13;100.00;90833.09;6227130;22;20016;-80
2023/11/04 09:42:44;;;;;;;3.17;1.60;;;;;;;6.22;99.79;90831.31;6274359;22;20008;-80
2023/11/04 09:45:10;;;;;;;3.00;1.60;;;;;;;6.26;100.00;90819.25;6281468;22;20020;-80
2023/11/04 09:47:36;;;;;;;3.38;1.70;;;;;;;6.24;100.00;90826.59;6277960;22;20062;-78
2023/11/04 09:50:03;;;;;;;3.83;1.65;;;;;;;6.29;100.00;90823.09;6279950;22;20023;-79
2023/11/04 09:52:30;;;;;;;3.22;1.63;;;;;;;6.31;100.00;90826.16;6280102;22;20025;-80
2023/11/04 09:54:59;;;;;;;2.15;1.27;;;;;;;6.38;100.00;90826.47;6277149;22;20445;-81
2023/11/04 09:57:26;;;;;;;3.05;1.52;;;;;;;6.40;100.00;90821.75;6275967;22;20013;-83
2023/11/04 09:59:52;;;;;;;3.72;1.73;;;;;;;6.34;100.00;90828.91;6281080;22;20012;-81
2023/11/04 10:02:18;;;;;;;2.35;1.20;;;;;;;6.31;100.00;90826.91;6280714;22;20011;-79
2023/11/04 10:05:12;;;;;;;2.45;1.38;;;;;;;6.19;100.00;90821.50;6278163;22;20012;-79
2023/11/04 10:07:50;;;;;;;3.72;1.70;;;;;;;6.23;100.00;90817.22;6277893;22;20061;-79
2023/11/04 10:10:15;;;;;;;4.07;1.77;;;;;;;6.30;100.00;90811.59;6281339;22;20342;-79
2023/11/04 10:12:42;;;;;;;3.90;1.80;;;;;;;6.46;100.00;90803.13;6280488;22;20067;-78
2023/11/04 10:15:08;;;;;;;5.05;1.95;;;;;;;6.63;100.00;90806.81;6276803;22;20008;-81
2023/11/04 10:17:35;;;;;;;4.53;1.92;;;;;;;6.71;100.00;90802.69;6250630;22;20003;-79
2023/11/04 10:20:07;;;;;;;2.63;1.42;;;;;;;6.86;100.00;90804.88;6277219;22;20082;-79
2023/11/04 10:22:34;;;;;;;;;;;;;;;6.93;100.00;90807.78;6249618;22;20015;-79
2023/11/04 10:25:00;;;;;;;3.80;1.80;;;;;;;6.85;100.00;90806.72;6275837;22;19954;-81
2023/11/04 10:27:25;;;;;;;2.78;1.70;;;;;;;7.20;100.00;90803.38;6282116;22;20011;-81
2023/11/04 10:29:53;;;;;;;4.03;1.70;;;;;;;7.14;100.00;90802.00;6275799;22;20016;-79
2023/11/04 10:32:23;;;;;;;3.83;1.90;;;;;;;7.10;100.00;90796.66;6276975;22;20447;-80
2023/11/04 10:34:54;;;;;;;3.05;2.03;;;;;;;7.18;100.00;90788.09;6282447;22;20353;-80
2023/11/04 10:37:23;;;;;;;2.75;1.65;;;;;;;7.11;100.00;90790.38;6277534;22;20464;-80
2023/11/04 10:39:55;;;;;;;3.30;1.65;;;;;;;6.85;100.00;90791.13;6278848;22;20017;-80
2023/11/04 10:42:27;;;;;;;1.65;1.20;;;;;;;6.96;100.00;90788.19;6248730;22;20016;-80
2023/11/04 10:44:58;;;;;;;3.17;1.55;;;;;;;6.69;100.00;90803.03;6274889;22;20003;-79
2023/11/04 10:47:36;;;;;;;3.78;1.75;;;;;;;6.63;100.00;90794.59;6248682;22;20012;-78
2023/11/04 10:50:14;;;;;;;4.55;1.50;;;;;;;6.48;100.00;90797.59;6248570;22;20016;-80
2023/11/04 10:53:01;;;;;;;3.67;1.70;;;;;;;6.57;100.00;90793.19;6278474;22;20014;-79
2023/11/04 10:55:34;;;;;;;3.90;1.60;;;;;;;6.64;100.00;90780.53;6249499;22;20344;-80
2023/11/04 10:58:04;;;;;;;3.78;1.45;;;;;;;6.89;100.00;90765.28;6250066;22;20501;-78
2023/11/04 11:00:32;;;;;;;8.27;1.70;;;;;;;7.12;100.00;90758.09;6250694;22;20018;-79
2023/11/04 11:02:58;;;;;;;3.38;1.98;;;;;;;7.28;100.00;90760.97;6223977;22;20072;-79
2023/11/04 11:05:25;;;;;;;4.28;1.90;;;;;;;7.22;100.00;90762.19;6250621;22;20068;-79
2023/11/04 11:07:51;;;;;;;5.15;1.83;;;;;;;7.12;100.00;90768.50;6222723;22;20016;-79
2023/11/04 11:10:19;;;;;;;2.80;1.60;;;;;;;6.95;100.00;90761.44;6276013;22;20474;-81
2023/11/04 11:13:04;;;;;;;2.90;1.50;;;;;;;6.55;100.00;90764.16;6249900;22;20015;-84
2023/11/04 11:15:31;;;;;;;4.47;1.70;;;;;;;6.38;100.00;90761.50;6252320;22;20011;-79
2023/11/04 11:18:00;;;;;;;4.35;1.90;;;;;;;6.31;100.00;90759.34;6278396;22;20317;-79
2023/11/04 11:20:28;;;;;;;4.32;2.00;;;;;;;6.15;100.00;90768.63;6278297;22;20015;-81
2023/11/04 11:22:57;;;;;;;5.20;2.25;;;;;;;6.15;100.00;90766.03;6279374;22;20018;-79
2023/11/04 11:26:01;;;;;;;5.47;2.20;;;;;;;6.27;100.00;90763.59;6254438;22;20043;-78
2023/11/04 11:28:35;;;;;;;5.28;2.33;;;;;;;6.28;100.00;90772.16;6252979;22;20008;-78
2023/11/04 11:31:00;;;;;;;5.28;2.53;;;;;;;6.37;100.00;90771.13;6281769;22;20034;-81
2023/11/04 11:33:30;;;;;;;6.00;2.35;;;;;;;6.28;100.00;90765.13;6253630;22;20020;-80
2023/11/04 11:36:13;;;;;;;3.95;2.00;;;;;;;6.38;100.00;90759.66;6230784;22;20015;-77